sensor_id;sensor_type;location;lat;lon;timestamp;temperature;humidity
74657;DHT22;63185;45.642;13.764;2023-01-13T00:00:54;10.70;65.80
74657;DHT22;63185;45.642;13.764;2023-01-13T00:03:21;10.70;65.80
74657;DHT22;63185;45.642;13.764;2023-01-13T00:05:47;10.70;65.30
74657;DHT22;63185;45.642;13.764;2023-01-13T00:08:14;10.80;65.30
74657;DHT22;63185;45.642;13.764;2023-01-13T00:10:45;10.80;64.90
74657;DHT22;63185;45.642;13.764;2023-01-13T00:13:11;10.80;64.80
74657;DHT22;63185;45.642;13.764;2023-01-13T00:15:37;10.80;64.50
74657;DHT22;63185;45.642;13.764;2023-01-13T00:18:03;10.80;64.40
74657;DHT22;63185;45.642;13.764;2023-01-13T00:20:29;10.90;64.40
74657;DHT22;63185;45.642;13.764;2023-01-13T00:22:57;10.90;64.10
74657;DHT22;63185;45.642;13.764;2023-01-13T00:25:25;10.90;64.30
74657;DHT22;63185;45.642;13.764;2023-01-13T00:27:52;10.90;64.20
74657;DHT22;63185;45.642;13.764;2023-01-13T00:30:19;11.00;64.20
74657;DHT22;63185;45.642;13.764;2023-01-13T00:32:45;11.00;63.90
74657;DHT22;63185;45.642;13.764;2023-01-13T00:35:12;11.00;63.70
74657;DHT22;63185;45.642;13.764;2023-01-13T00:37:38;11.10;63.80
74657;DHT22;63185;45.642;13.764;2023-01-13T00:40:06;11.10;63.10
74657;DHT22;63185;45.642;13.764;2023-01-13T00:42:33;11.20;62.20
74657;DHT22;63185;45.642;13.764;2023-01-13T00:45:18;11.20;62.30
74657;DHT22;63185;45.642;13.764;2023-01-13T00:47:44;11.20;62.50
74657;DHT22;63185;45.642;13.764;2023-01-13T00:50:11;11.20;62.20
74657;DHT22;63185;45.642;13.764;2023-01-13T00:52:38;11.20;62.50
74657;DHT22;63185;45.642;13.764;2023-01-13T00:55:04;11.20;62.70
74657;DHT22;63185;45.642;13.764;2023-01-13T00:57:31;11.20;63.20
74657;DHT22;63185;45.642;13.764;2023-01-13T00:59:58;11.30;63.20
74657;DHT22;63185;45.642;13.764;2023-01-13T01:02:24;11.30;62.80
74657;DHT22;63185;45.642;13.764;2023-01-13T01:04:50;11.30;62.90
74657;DHT22;63185;45.642;13.764;2023-01-13T01:07:17;11.40;62.80
74657;DHT22;63185;45.642;13.764;2023-01-13T01:09:43;11.30;62.70
74657;DHT22;63185;45.642;13.764;2023-01-13T01:12:11;11.30;62.90
74657;DHT22;63185;45.642;13.764;2023-01-13T01:14:37;11.40;62.90
74657;DHT22;63185;45.642;13.764;2023-01-13T01:17:04;11.40;62.50
74657;DHT22;63185;45.642;13.764;2023-01-13T01:19:31;11.40;62.10
74657;DHT22;63185;45.642;13.764;2023-01-13T01:22:01;11.40;62.40
74657;DHT22;63185;45.642;13.764;2023-01-13T01:24:28;11.50;62.90
74657;DHT22;63185;45.642;13.764;2023-01-13T01:26:54;11.50;63.30
74657;DHT22;63185;45.642;13.764;2023-01-13T01:29:21;11.40;63.50
74657;DHT22;63185;45.642;13.764;2023-01-13T01:31:47;11.40;63.70
74657;DHT22;63185;45.642;13.764;2023-01-13T01:34:13;11.30;63.90
74657;DHT22;63185;45.642;13.764;2023-01-13T01:36:40;11.30;64.40
74657;DHT22;63185;45.642;13.764;2023-01-13T01:39:07;11.30;64.60
74657;DHT22;63185;45.642;13.764;2023-01-13T01:41:35;11.20;64.70
74657;DHT22;63185;45.642;13.764;2023-01-13T01:44:48;11.20;64.70
74657;DHT22;63185;45.642;13.764;2023-01-13T01:46:54;11.20;64.70
74657;DHT22;63185;45.642;13.764;2023-01-13T01:49:31;11.30;63.90
74657;DHT22;63185;45.642;13.764;2023-01-13T01:57:17;11.30;63.70
74657;DHT22;63185;45.642;13.764;2023-01-13T01:59:45;11.30;63.60
74657;DHT22;63185;45.642;13.764;2023-01-13T02:02:13;11.30;63.60
74657;DHT22;63185;45.642;13.764;2023-01-13T02:04:44;11.30;63.30
74657;DHT22;63185;45.642;13.764;2023-01-13T02:07:27;11.30;63.00
74657;DHT22;63185;45.642;13.764;2023-01-13T02:09:57;11.30;62.50
74657;DHT22;63185;45.642;13.764;2023-01-13T02:12:26;11.40;61.90
74657;DHT22;63185;45.642;13.764;2023-01-13T02:14:59;11.40;61.50
74657;DHT22;63185;45.642;13.764;2023-01-13T02:17:40;11.40;61.40
74657;DHT22;63185;45.642;13.764;2023-01-13T02:26:45;11.30;62.50
74657;DHT22;63185;45.642;13.764;2023-01-13T02:29:46;11.30;62.60
74657;DHT22;63185;45.642;13.764;2023-01-13T02:33:20;11.20;62.80
74657;DHT22;63185;45.642;13.764;2023-01-13T02:36:12;11.20;63.10
74657;DHT22;63185;45.642;13.764;2023-01-13T02:39:19;11.20;63.00
74657;DHT22;63185;45.642;13.764;2023-01-13T02:41:51;11.20;63.60
74657;DHT22;63185;45.642;13.764;2023-01-13T02:44:54;11.10;64.20
74657;DHT22;63185;45.642;13.764;2023-01-13T02:47:28;11.10;64.40
74657;DHT22;63185;45.642;13.764;2023-01-13T02:49:59;11.10;64.30
74657;DHT22;63185;45.642;13.764;2023-01-13T02:52:34;11.10;64.00
74657;DHT22;63185;45.642;13.764;2023-01-13T02:55:17;11.10;63.80
74657;DHT22;63185;45.642;13.764;2023-01-13T02:57:45;11.10;63.20
74657;DHT22;63185;45.642;13.764;2023-01-13T03:00:14;11.10;62.00
74657;DHT22;63185;45.642;13.764;2023-01-13T03:02:42;11.10;62.80
74657;DHT22;63185;45.642;13.764;2023-01-13T03:05:12;11.10;61.70
74657;DHT22;63185;45.642;13.764;2023-01-13T03:07:43;11.10;61.00
74657;DHT22;63185;45.642;13.764;2023-01-13T03:16:28;11.10;61.10
74657;DHT22;63185;45.642;13.764;2023-01-13T03:22:11;11.20;60.90
74657;DHT22;63185;45.642;13.764;2023-01-13T03:24:46;11.20;60.30
74657;DHT22;63185;45.642;13.764;2023-01-13T03:27:29;11.20;60.90
74657;DHT22;63185;45.642;13.764;2023-01-13T03:30:08;11.20;60.60
74657;DHT22;63185;45.642;13.764;2023-01-13T03:32:41;11.20;60.40
74657;DHT22;63185;45.642;13.764;2023-01-13T03:35:19;11.20;60.30
74657;DHT22;63185;45.642;13.764;2023-01-13T03:37:59;11.30;59.40
74657;DHT22;63185;45.642;13.764;2023-01-13T03:40:34;11.30;58.70
74657;DHT22;63185;45.642;13.764;2023-01-13T03:43:15;11.40;56.60
74657;DHT22;63185;45.642;13.764;2023-01-13T03:46:06;11.50;55.80
74657;DHT22;63185;45.642;13.764;2023-01-13T03:48:35;11.50;55.50
74657;DHT22;63185;45.642;13.764;2023-01-13T03:51:07;11.50;58.00
74657;DHT22;63185;45.642;13.764;2023-01-13T03:53:39;11.50;58.60
74657;DHT22;63185;45.642;13.764;2023-01-13T03:56:38;11.50;58.00
74657;DHT22;63185;45.642;13.764;2023-01-13T03:59:05;11.40;58.10
74657;DHT22;63185;45.642;13.764;2023-01-13T04:04:31;11.40;57.30
74657;DHT22;63185;45.642;13.764;2023-01-13T04:09:51;11.60;57.40
74657;DHT22;63185;45.642;13.764;2023-01-13T04:12:28;11.40;57.70
74657;DHT22;63185;45.642;13.764;2023-01-13T04:15:22;11.40;58.80
74657;DHT22;63185;45.642;13.764;2023-01-13T04:17:50;11.30;59.20
74657;DHT22;63185;45.642;13.764;2023-01-13T04:20:17;11.20;59.70
74657;DHT22;63185;45.642;13.764;2023-01-13T04:22:44;11.20;59.90
74657;DHT22;63185;45.642;13.764;2023-01-13T04:25:11;11.20;59.90
74657;DHT22;63185;45.642;13.764;2023-01-13T04:27:37;11.20;59.50
74657;DHT22;63185;45.642;13.764;2023-01-13T04:30:04;11.30;59.30
74657;DHT22;63185;45.642;13.764;2023-01-13T04:32:30;11.30;59.80
74657;DHT22;63185;45.642;13.764;2023-01-13T04:34:57;11.30;59.90
74657;DHT22;63185;45.642;13.764;2023-01-13T04:37:24;11.30;59.50
74657;DHT22;63185;45.642;13.764;2023-01-13T04:39:50;11.30;59.60
74657;DHT22;63185;45.642;13.764;2023-01-13T04:42:17;11.40;59.60
74657;DHT22;63185;45.642;13.764;2023-01-13T04:44:43;11.30;60.30
74657;DHT22;63185;45.642;13.764;2023-01-13T04:47:09;11.30;60.70
74657;DHT22;63185;45.642;13.764;2023-01-13T04:49:35;11.30;61.10
74657;DHT22;63185;45.642;13.764;2023-01-13T04:52:02;11.40;61.20
74657;DHT22;63185;45.642;13.764;2023-01-13T04:54:29;11.30;61.30
74657;DHT22;63185;45.642;13.764;2023-01-13T04:56:55;11.20;61.30
74657;DHT22;63185;45.642;13.764;2023-01-13T04:59:22;11.20;61.20
74657;DHT22;63185;45.642;13.764;2023-01-13T05:01:49;11.20;61.20
74657;DHT22;63185;45.642;13.764;2023-01-13T05:04:16;11.10;61.40
74657;DHT22;63185;45.642;13.764;2023-01-13T05:06:42;11.00;61.60
74657;DHT22;63185;45.642;13.764;2023-01-13T05:09:10;11.00;61.20
74657;DHT22;63185;45.642;13.764;2023-01-13T05:11:38;11.00;60.60
74657;DHT22;63185;45.642;13.764;2023-01-13T05:14:24;11.00;62.40
74657;DHT22;63185;45.642;13.764;2023-01-13T05:17:21;11.00;62.50
74657;DHT22;63185;45.642;13.764;2023-01-13T05:19:48;11.00;61.90
74657;DHT22;63185;45.642;13.764;2023-01-13T05:22:15;11.00;60.80
74657;DHT22;63185;45.642;13.764;2023-01-13T05:25:00;10.90;60.70
74657;DHT22;63185;45.642;13.764;2023-01-13T05:27:46;10.90;60.90
74657;DHT22;63185;45.642;13.764;2023-01-13T05:30:13;10.90;60.80
74657;DHT22;63185;45.642;13.764;2023-01-13T05:32:39;10.90;59.90
74657;DHT22;63185;45.642;13.764;2023-01-13T05:35:05;10.90;59.30
74657;DHT22;63185;45.642;13.764;2023-01-13T05:37:32;10.90;59.20
74657;DHT22;63185;45.642;13.764;2023-01-13T05:39:59;10.90;59.10
74657;DHT22;63185;45.642;13.764;2023-01-13T05:42:44;10.80;59.50
74657;DHT22;63185;45.642;13.764;2023-01-13T05:45:30;10.80;59.00
74657;DHT22;63185;45.642;13.764;2023-01-13T05:47:57;10.80;58.30
74657;DHT22;63185;45.642;13.764;2023-01-13T05:50:24;10.80;57.80
74657;DHT22;63185;45.642;13.764;2023-01-13T05:52:49;10.70;57.30
74657;DHT22;63185;45.642;13.764;2023-01-13T05:55:16;10.70;57.10
74657;DHT22;63185;45.642;13.764;2023-01-13T05:57:43;10.70;56.60
74657;DHT22;63185;45.642;13.764;2023-01-13T06:00:09;10.70;56.70
74657;DHT22;63185;45.642;13.764;2023-01-13T06:02:36;10.70;56.30
74657;DHT22;63185;45.642;13.764;2023-01-13T06:05:02;10.70;55.30
74657;DHT22;63185;45.642;13.764;2023-01-13T06:07:29;10.80;54.70
74657;DHT22;63185;45.642;13.764;2023-01-13T06:09:56;10.90;53.10
74657;DHT22;63185;45.642;13.764;2023-01-13T06:12:22;11.00;54.80
74657;DHT22;63185;45.642;13.764;2023-01-13T06:14:48;11.00;56.90
74657;DHT22;63185;45.642;13.764;2023-01-13T06:17:15;10.90;57.40
74657;DHT22;63185;45.642;13.764;2023-01-13T06:19:42;10.80;57.70
74657;DHT22;63185;45.642;13.764;2023-01-13T06:24:38;10.70;56.80
74657;DHT22;63185;45.642;13.764;2023-01-13T06:27:05;10.60;54.90
74657;DHT22;63185;45.642;13.764;2023-01-13T06:29:32;10.60;54.10
74657;DHT22;63185;45.642;13.764;2023-01-13T06:32:02;10.60;54.80
74657;DHT22;63185;45.642;13.764;2023-01-13T06:34:31;10.60;56.10
74657;DHT22;63185;45.642;13.764;2023-01-13T06:36:58;10.60;57.90
74657;DHT22;63185;45.642;13.764;2023-01-13T06:39:26;10.80;58.10
74657;DHT22;63185;45.642;13.764;2023-01-13T06:41:57;10.70;59.20
74657;DHT22;63185;45.642;13.764;2023-01-13T06:44:43;10.80;60.20
74657;DHT22;63185;45.642;13.764;2023-01-13T06:47:10;10.80;61.10
74657;DHT22;63185;45.642;13.764;2023-01-13T06:49:36;10.80;62.30
74657;DHT22;63185;45.642;13.764;2023-01-13T06:52:02;10.90;63.50
74657;DHT22;63185;45.642;13.764;2023-01-13T06:54:29;11.00;64.50
74657;DHT22;63185;45.642;13.764;2023-01-13T06:56:56;11.00;64.40
74657;DHT22;63185;45.642;13.764;2023-01-13T06:59:22;11.00;64.20
74657;DHT22;63185;45.642;13.764;2023-01-13T07:01:49;11.10;64.70
74657;DHT22;63185;45.642;13.764;2023-01-13T07:04:16;11.10;64.30
74657;DHT22;63185;45.642;13.764;2023-01-13T07:06:44;11.30;64.20
74657;DHT22;63185;45.642;13.764;2023-01-13T07:09:11;11.30;64.00
74657;DHT22;63185;45.642;13.764;2023-01-13T07:11:38;11.30;63.90
74657;DHT22;63185;45.642;13.764;2023-01-13T07:14:04;11.40;63.70
74657;DHT22;63185;45.642;13.764;2023-01-13T07:16:50;11.40;63.70
74657;DHT22;63185;45.642;13.764;2023-01-13T07:19:17;11.40;63.60
74657;DHT22;63185;45.642;13.764;2023-01-13T07:21:50;11.50;63.80
74657;DHT22;63185;45.642;13.764;2023-01-13T07:24:18;11.50;63.80
74657;DHT22;63185;45.642;13.764;2023-01-13T07:26:45;11.60;63.60
74657;DHT22;63185;45.642;13.764;2023-01-13T07:29:12;11.60;63.40
74657;DHT22;63185;45.642;13.764;2023-01-13T07:31:38;11.70;63.30
74657;DHT22;63185;45.642;13.764;2023-01-13T07:34:06;11.70;63.30
74657;DHT22;63185;45.642;13.764;2023-01-13T07:36:33;11.80;63.10
74657;DHT22;63185;45.642;13.764;2023-01-13T07:38:59;11.80;63.00
74657;DHT22;63185;45.642;13.764;2023-01-13T07:41:25;11.80;62.80
74657;DHT22;63185;45.642;13.764;2023-01-13T07:44:10;11.90;62.60
74657;DHT22;63185;45.642;13.764;2023-01-13T07:46:37;12.00;62.30
74657;DHT22;63185;45.642;13.764;2023-01-13T07:49:04;12.10;62.10
74657;DHT22;63185;45.642;13.764;2023-01-13T07:51:30;12.10;61.40
74657;DHT22;63185;45.642;13.764;2023-01-13T07:53:57;12.10;60.10
74657;DHT22;63185;45.642;13.764;2023-01-13T07:56:24;12.00;60.10
74657;DHT22;63185;45.642;13.764;2023-01-13T07:58:50;12.00;59.50
74657;DHT22;63185;45.642;13.764;2023-01-13T08:01:18;12.00;59.40
74657;DHT22;63185;45.642;13.764;2023-01-13T08:03:45;12.00;59.00
74657;DHT22;63185;45.642;13.764;2023-01-13T08:06:12;12.10;59.10
74657;DHT22;63185;45.642;13.764;2023-01-13T08:08:40;12.20;60.00
74657;DHT22;63185;45.642;13.764;2023-01-13T08:11:07;12.30;59.80
74657;DHT22;63185;45.642;13.764;2023-01-13T08:13:34;12.30;59.90
74657;DHT22;63185;45.642;13.764;2023-01-13T08:16:06;12.40;59.90
74657;DHT22;63185;45.642;13.764;2023-01-13T08:18:35;12.50;60.00
74657;DHT22;63185;45.642;13.764;2023-01-13T08:21:08;12.60;59.40
74657;DHT22;63185;45.642;13.764;2023-01-13T08:23:36;12.70;58.50
74657;DHT22;63185;45.642;13.764;2023-01-13T08:26:05;12.70;58.70
74657;DHT22;63185;45.642;13.764;2023-01-13T08:28:31;12.90;59.20
74657;DHT22;63185;45.642;13.764;2023-01-13T08:31:03;12.90;59.40
74657;DHT22;63185;45.642;13.764;2023-01-13T08:33:30;12.80;59.00
74657;DHT22;63185;45.642;13.764;2023-01-13T08:35:57;12.70;59.90
74657;DHT22;63185;45.642;13.764;2023-01-13T08:38:24;12.80;60.20
74657;DHT22;63185;45.642;13.764;2023-01-13T08:40:50;12.80;59.60
74657;DHT22;63185;45.642;13.764;2023-01-13T08:43:17;12.80;59.10
74657;DHT22;63185;45.642;13.764;2023-01-13T08:45:44;12.70;59.40
74657;DHT22;63185;45.642;13.764;2023-01-13T08:48:10;12.80;59.80
74657;DHT22;63185;45.642;13.764;2023-01-13T08:50:38;12.70;60.50
74657;DHT22;63185;45.642;13.764;2023-01-13T08:53:04;12.70;60.20
74657;DHT22;63185;45.642;13.764;2023-01-13T08:55:30;12.70;59.80
74657;DHT22;63185;45.642;13.764;2023-01-13T08:57:56;12.70;60.30
74657;DHT22;63185;45.642;13.764;2023-01-13T09:00:23;12.50;59.70
74657;DHT22;63185;45.642;13.764;2023-01-13T09:02:50;12.50;59.30
74657;DHT22;63185;45.642;13.764;2023-01-13T09:05:16;12.40;60.00
74657;DHT22;63185;45.642;13.764;2023-01-13T09:07:43;12.40;60.50
74657;DHT22;63185;45.642;13.764;2023-01-13T09:10:10;12.30;61.00
74657;DHT22;63185;45.642;13.764;2023-01-13T09:12:36;12.30;61.10
74657;DHT22;63185;45.642;13.764;2023-01-13T09:15:21;12.50;61.00
74657;DHT22;63185;45.642;13.764;2023-01-13T09:17:50;12.60;61.30
74657;DHT22;63185;45.642;13.764;2023-01-13T09:20:16;12.80;61.30
74657;DHT22;63185;45.642;13.764;2023-01-13T09:22:43;12.90;61.10
74657;DHT22;63185;45.642;13.764;2023-01-13T09:25:10;12.80;61.80
74657;DHT22;63185;45.642;13.764;2023-01-13T09:27:39;12.80;62.20
74657;DHT22;63185;45.642;13.764;2023-01-13T09:30:06;12.90;62.00
74657;DHT22;63185;45.642;13.764;2023-01-13T09:32:32;13.10;61.50
74657;DHT22;63185;45.642;13.764;2023-01-13T09:34:57;13.10;61.50
74657;DHT22;63185;45.642;13.764;2023-01-13T09:37:31;13.20;61.40
74657;DHT22;63185;45.642;13.764;2023-01-13T09:39:59;13.30;61.50
74657;DHT22;63185;45.642;13.764;2023-01-13T09:42:45;13.40;61.00
74657;DHT22;63185;45.642;13.764;2023-01-13T09:45:51;13.60;60.60
74657;DHT22;63185;45.642;13.764;2023-01-13T09:48:19;13.60;60.40
74657;DHT22;63185;45.642;13.764;2023-01-13T09:53:29;13.80;60.20
74657;DHT22;63185;45.642;13.764;2023-01-13T09:55:57;13.90;60.20
74657;DHT22;63185;45.642;13.764;2023-01-13T09:58:23;14.00;59.50
74657;DHT22;63185;45.642;13.764;2023-01-13T10:01:01;14.10;59.00
74657;DHT22;63185;45.642;13.764;2023-01-13T10:03:31;14.00;59.10
74657;DHT22;63185;45.642;13.764;2023-01-13T10:08:37;14.10;58.50
74657;DHT22;63185;45.642;13.764;2023-01-13T10:11:16;14.10;58.40
74657;DHT22;63185;45.642;13.764;2023-01-13T10:14:14;14.10;58.50
74657;DHT22;63185;45.642;13.764;2023-01-13T10:19:43;14.10;60.00
74657;DHT22;63185;45.642;13.764;2023-01-13T10:28:07;14.20;59.80
74657;DHT22;63185;45.642;13.764;2023-01-13T10:30:39;14.20;60.20
74657;DHT22;63185;45.642;13.764;2023-01-13T10:33:17;14.30;59.80
74657;DHT22;63185;45.642;13.764;2023-01-13T10:36:01;14.50;59.60
74657;DHT22;63185;45.642;13.764;2023-01-13T10:38:37;14.40;59.10
74657;DHT22;63185;45.642;13.764;2023-01-13T10:41:05;14.40;58.50
74657;DHT22;63185;45.642;13.764;2023-01-13T10:43:33;14.10;59.10
74657;DHT22;63185;45.642;13.764;2023-01-13T10:46:01;14.10;59.70
74657;DHT22;63185;45.642;13.764;2023-01-13T10:48:51;14.30;59.10
74657;DHT22;63185;45.642;13.764;2023-01-13T10:51:23;14.40;58.40
74657;DHT22;63185;45.642;13.764;2023-01-13T10:54:36;14.50;58.30
74657;DHT22;63185;45.642;13.764;2023-01-13T10:56:44;14.50;58.00
74657;DHT22;63185;45.642;13.764;2023-01-13T10:59:23;14.40;58.70
74657;DHT22;63185;45.642;13.764;2023-01-13T11:12:48;13.90;60.30
74657;DHT22;63185;45.642;13.764;2023-01-13T11:15:19;13.80;60.00
74657;DHT22;63185;45.642;13.764;2023-01-13T11:17:50;13.70;60.40
74657;DHT22;63185;45.642;13.764;2023-01-13T11:20:38;13.60;60.50
74657;DHT22;63185;45.642;13.764;2023-01-13T11:23:20;13.80;59.40
74657;DHT22;63185;45.642;13.764;2023-01-13T11:25:53;14.00;59.60
74657;DHT22;63185;45.642;13.764;2023-01-13T11:34:27;13.90;59.20
74657;DHT22;63185;45.642;13.764;2023-01-13T11:36:46;13.90;57.60
74657;DHT22;63185;45.642;13.764;2023-01-13T11:39:23;14.00;56.20
74657;DHT22;63185;45.642;13.764;2023-01-13T11:42:00;13.90;55.80
74657;DHT22;63185;45.642;13.764;2023-01-13T11:47:44;14.00;55.60
74657;DHT22;63185;45.642;13.764;2023-01-13T11:52:58;14.10;54.00
74657;DHT22;63185;45.642;13.764;2023-01-13T11:58:44;14.20;53.20
74657;DHT22;63185;45.642;13.764;2023-01-13T12:09:50;14.10;52.60
74657;DHT22;63185;45.642;13.764;2023-01-13T12:12:50;14.10;53.10
74657;DHT22;63185;45.642;13.764;2023-01-13T12:23:37;13.80;52.70
74657;DHT22;63185;45.642;13.764;2023-01-13T12:26:15;13.70;53.30
74657;DHT22;63185;45.642;13.764;2023-01-13T12:29:37;13.80;54.90
74657;DHT22;63185;45.642;13.764;2023-01-13T12:31:47;13.80;56.30
74657;DHT22;63185;45.642;13.764;2023-01-13T12:37:08;13.60;58.10
74657;DHT22;63185;45.642;13.764;2023-01-13T12:45:32;13.70;56.40
74657;DHT22;63185;45.642;13.764;2023-01-13T12:47:58;13.70;54.50
74657;DHT22;63185;45.642;13.764;2023-01-13T13:00:56;13.70;57.40
74657;DHT22;63185;45.642;13.764;2023-01-13T13:03:31;13.70;57.30
74657;DHT22;63185;45.642;13.764;2023-01-13T13:14:10;13.80;57.80
74657;DHT22;63185;45.642;13.764;2023-01-13T13:30:26;13.80;55.80
74657;DHT22;63185;45.642;13.764;2023-01-13T13:38:54;13.60;56.40
74657;DHT22;63185;45.642;13.764;2023-01-13T13:41:44;13.60;56.50
74657;DHT22;63185;45.642;13.764;2023-01-13T13:44:34;13.70;56.90
74657;DHT22;63185;45.642;13.764;2023-01-13T13:47:19;13.80;56.10
74657;DHT22;63185;45.642;13.764;2023-01-13T13:49:47;13.90;56.20
74657;DHT22;63185;45.642;13.764;2023-01-13T13:52:20;13.90;55.40
74657;DHT22;63185;45.642;13.764;2023-01-13T13:54:50;13.90;54.50
74657;DHT22;63185;45.642;13.764;2023-01-13T13:57:18;13.80;54.30
74657;DHT22;63185;45.642;13.764;2023-01-13T13:59:44;13.90;54.00
74657;DHT22;63185;45.642;13.764;2023-01-13T14:02:19;13.90;53.00
74657;DHT22;63185;45.642;13.764;2023-01-13T14:04:48;13.80;53.20
74657;DHT22;63185;45.642;13.764;2023-01-13T14:07:19;13.90;52.80
74657;DHT22;63185;45.642;13.764;2023-01-13T14:09:53;14.00;53.70
74657;DHT22;63185;45.642;13.764;2023-01-13T14:12:24;14.00;53.90
74657;DHT22;63185;45.642;13.764;2023-01-13T14:14:50;14.10;53.30
74657;DHT22;63185;45.642;13.764;2023-01-13T14:17:20;14.00;53.20
74657;DHT22;63185;45.642;13.764;2023-01-13T14:19:59;14.00;53.30
74657;DHT22;63185;45.642;13.764;2023-01-13T14:22:25;14.00;53.00
74657;DHT22;63185;45.642;13.764;2023-01-13T14:24:51;14.00;52.50
74657;DHT22;63185;45.642;13.764;2023-01-13T14:27:20;13.90;52.50
74657;DHT22;63185;45.642;13.764;2023-01-13T14:29:46;13.90;52.10
74657;DHT22;63185;45.642;13.764;2023-01-13T14:32:17;13.90;51.50
74657;DHT22;63185;45.642;13.764;2023-01-13T14:34:43;13.90;51.00
74657;DHT22;63185;45.642;13.764;2023-01-13T14:37:39;13.90;51.20
74657;DHT22;63185;45.642;13.764;2023-01-13T14:42:58;13.80;51.70
74657;DHT22;63185;45.642;13.764;2023-01-13T14:45:25;13.90;52.20
74657;DHT22;63185;45.642;13.764;2023-01-13T14:47:52;13.80;52.90
74657;DHT22;63185;45.642;13.764;2023-01-13T14:50:23;13.80;53.70
74657;DHT22;63185;45.642;13.764;2023-01-13T14:52:54;13.70;54.00
74657;DHT22;63185;45.642;13.764;2023-01-13T14:57:50;13.60;55.90
74657;DHT22;63185;45.642;13.764;2023-01-13T15:00:20;13.60;56.50
74657;DHT22;63185;45.642;13.764;2023-01-13T15:13:05;13.50;58.50
74657;DHT22;63185;45.642;13.764;2023-01-13T15:15:36;13.50;58.60
74657;DHT22;63185;45.642;13.764;2023-01-13T15:18:13;13.60;58.50
74657;DHT22;63185;45.642;13.764;2023-01-13T15:20:40;13.60;58.40
74657;DHT22;63185;45.642;13.764;2023-01-13T15:23:06;13.60;58.10
74657;DHT22;63185;45.642;13.764;2023-01-13T15:25:34;13.80;57.70
74657;DHT22;63185;45.642;13.764;2023-01-13T15:28:00;13.90;57.40
74657;DHT22;63185;45.642;13.764;2023-01-13T15:30:26;13.80;57.30
74657;DHT22;63185;45.642;13.764;2023-01-13T15:32:56;13.80;56.80
74657;DHT22;63185;45.642;13.764;2023-01-13T15:35:24;13.60;54.80
74657;DHT22;63185;45.642;13.764;2023-01-13T15:37:51;13.60;54.10
74657;DHT22;63185;45.642;13.764;2023-01-13T15:40:22;13.60;55.60
74657;DHT22;63185;45.642;13.764;2023-01-13T15:42:48;13.60;56.50
74657;DHT22;63185;45.642;13.764;2023-01-13T15:45:34;13.60;56.70
74657;DHT22;63185;45.642;13.764;2023-01-13T15:48:20;13.50;57.40
74657;DHT22;63185;45.642;13.764;2023-01-13T15:50:46;13.40;58.10
74657;DHT22;63185;45.642;13.764;2023-01-13T15:53:13;13.40;59.70
74657;DHT22;63185;45.642;13.764;2023-01-13T15:55:44;13.20;60.00
74657;DHT22;63185;45.642;13.764;2023-01-13T15:58:11;13.10;60.80
74657;DHT22;63185;45.642;13.764;2023-01-13T16:00:37;13.10;61.00
74657;DHT22;63185;45.642;13.764;2023-01-13T16:03:03;13.20;60.90
74657;DHT22;63185;45.642;13.764;2023-01-13T16:05:29;13.10;60.90
74657;DHT22;63185;45.642;13.764;2023-01-13T16:07:54;13.10;61.10
74657;DHT22;63185;45.642;13.764;2023-01-13T16:10:26;13.10;60.80
74657;DHT22;63185;45.642;13.764;2023-01-13T16:12:53;13.10;60.70
74657;DHT22;63185;45.642;13.764;2023-01-13T16:15:20;13.20;60.00
74657;DHT22;63185;45.642;13.764;2023-01-13T16:17:56;13.20;59.40
74657;DHT22;63185;45.642;13.764;2023-01-13T16:20:24;13.10;60.00
74657;DHT22;63185;45.642;13.764;2023-01-13T16:22:51;13.10;60.20
74657;DHT22;63185;45.642;13.764;2023-01-13T16:25:23;13.10;60.30
74657;DHT22;63185;45.642;13.764;2023-01-13T16:27:50;13.10;61.00
74657;DHT22;63185;45.642;13.764;2023-01-13T16:32:46;13.10;61.00
74657;DHT22;63185;45.642;13.764;2023-01-13T16:35:12;13.10;61.00
74657;DHT22;63185;45.642;13.764;2023-01-13T16:37:38;13.20;61.00
74657;DHT22;63185;45.642;13.764;2023-01-13T16:40:04;13.20;61.00
74657;DHT22;63185;45.642;13.764;2023-01-13T16:42:30;13.20;61.30
74657;DHT22;63185;45.642;13.764;2023-01-13T16:44:56;13.10;61.90
74657;DHT22;63185;45.642;13.764;2023-01-13T16:47:23;13.10;62.10
74657;DHT22;63185;45.642;13.764;2023-01-13T16:49:49;13.00;62.20
74657;DHT22;63185;45.642;13.764;2023-01-13T16:52:15;12.90;61.60
74657;DHT22;63185;45.642;13.764;2023-01-13T16:54:40;12.90;60.80
74657;DHT22;63185;45.642;13.764;2023-01-13T16:57:08;12.80;60.80
74657;DHT22;63185;45.642;13.764;2023-01-13T16:59:35;12.70;61.00
74657;DHT22;63185;45.642;13.764;2023-01-13T17:02:00;12.70;61.70
74657;DHT22;63185;45.642;13.764;2023-01-13T17:04:28;12.60;62.00
74657;DHT22;63185;45.642;13.764;2023-01-13T17:06:59;12.50;62.40
74657;DHT22;63185;45.642;13.764;2023-01-13T17:09:28;12.50;62.70
74657;DHT22;63185;45.642;13.764;2023-01-13T17:11:54;12.50;63.00
74657;DHT22;63185;45.642;13.764;2023-01-13T17:14:20;12.40;62.90
74657;DHT22;63185;45.642;13.764;2023-01-13T17:16:52;12.40;63.00
74657;DHT22;63185;45.642;13.764;2023-01-13T17:19:18;12.30;63.00
74657;DHT22;63185;45.642;13.764;2023-01-13T17:21:44;12.30;62.60
74657;DHT22;63185;45.642;13.764;2023-01-13T17:24:12;12.40;62.20
74657;DHT22;63185;45.642;13.764;2023-01-13T17:26:42;12.30;61.70
74657;DHT22;63185;45.642;13.764;2023-01-13T17:29:19;12.40;61.40
74657;DHT22;63185;45.642;13.764;2023-01-13T17:31:47;12.40;61.40
74657;DHT22;63185;45.642;13.764;2023-01-13T17:34:13;12.40;61.00
74657;DHT22;63185;45.642;13.764;2023-01-13T17:36:40;12.40;61.00
74657;DHT22;63185;45.642;13.764;2023-01-13T17:39:15;12.40;60.80
74657;DHT22;63185;45.642;13.764;2023-01-13T17:41:41;12.40;60.90
74657;DHT22;63185;45.642;13.764;2023-01-13T17:44:08;12.40;61.10
74657;DHT22;63185;45.642;13.764;2023-01-13T17:46:34;12.40;61.20
74657;DHT22;63185;45.642;13.764;2023-01-13T17:49:00;12.40;61.20
74657;DHT22;63185;45.642;13.764;2023-01-13T17:51:25;12.40;61.10
74657;DHT22;63185;45.642;13.764;2023-01-13T17:53:52;12.50;61.00
74657;DHT22;63185;45.642;13.764;2023-01-13T17:56:18;12.50;61.10
74657;DHT22;63185;45.642;13.764;2023-01-13T17:58:44;12.60;61.10
74657;DHT22;63185;45.642;13.764;2023-01-13T18:01:22;12.60;61.00
74657;DHT22;63185;45.642;13.764;2023-01-13T18:03:48;12.60;61.10
74657;DHT22;63185;45.642;13.764;2023-01-13T18:06:18;12.70;61.20
74657;DHT22;63185;45.642;13.764;2023-01-13T18:08:45;12.70;61.10